Time;durP1;ratioP1;P1;durP2;ratioP2;P2;SDS_P1;SDS_P2;PMS_P1;PMS_P2;Temp;Humidity;BMP_temperature;BMP_pressure;BME280_temperature;BME280_humidity;BME280_pressure;Samples;Min_cycle;Max_cycle;Signal;HPM_P1;HPM_P2
2022/07/10 00:00:12;;;;;;;5.75;4.65;;;;;;;16.60;78.52;96328.00;5098443;28;20195;-80
2022/07/10 00:02:42;;;;;;;5.13;4.60;;;;;;;16.54;78.58;96326.06;5097968;28;20168;-80
2022/07/10 00:05:08;;;;;;;5.82;4.55;;;;;;;16.53;79.03;96316.56;5086756;28;20188;-80
2022/07/10 00:07:33;;;;;;;5.35;4.90;;;;;;;16.51;78.88;96316.72;5076588;28;20234;-80
2022/07/10 00:09:59;;;;;;;4.90;4.50;;;;;;;16.50;78.80;96322.94;5060104;28;20176;-80
2022/07/10 00:12:24;;;;;;;6.22;5.13;;;;;;;16.43;79.19;96320.19;5060409;28;20195;-80
2022/07/10 00:14:49;;;;;;;6.43;5.35;;;;;;;16.41;79.22;96318.69;5093758;28;20617;-80
2022/07/10 00:17:15;;;;;;;5.90;5.22;;;;;;;16.40;79.35;96317.88;5076787;28;20619;-80
2022/07/10 00:19:40;;;;;;;7.07;4.95;;;;;;;16.33;79.60;96309.03;5076850;28;20200;-80
2022/07/10 00:22:05;;;;;;;6.28;5.68;;;;;;;16.33;79.56;96316.06;5094805;28;20200;-80
2022/07/10 00:24:31;;;;;;;7.45;6.03;;;;;;;16.27;80.19;96309.72;5075824;28;20188;-80
2022/07/10 00:26:57;;;;;;;6.10;5.60;;;;;;;16.28;80.01;96315.75;5076579;28;20235;-80
2022/07/10 00:29:22;;;;;;;6.43;5.93;;;;;;;16.22;80.24;96311.16;5076526;28;20177;-80
2022/07/10 00:31:47;;;;;;;6.45;5.85;;;;;;;16.25;80.19;96305.59;5060194;28;20208;-80
2022/07/10 00:34:12;;;;;;;6.25;5.65;;;;;;;16.17;80.43;96306.44;5075939;28;20683;-79
2022/07/10 00:36:38;;;;;;;6.72;6.05;;;;;;;16.16;80.34;96296.91;5076312;28;20237;-79
2022/07/10 00:39:03;;;;;;;8.45;7.15;;;;;;;16.11;81.04;96305.28;5058966;28;20594;-79
2022/07/10 00:41:29;;;;;;;7.82;6.78;;;;;;;16.06;81.25;96307.56;5075699;28;20216;-79
2022/07/10 00:43:56;;;;;;;7.43;6.78;;;;;;;16.06;81.32;96304.13;5076100;28;20189;-79
2022/07/10 00:46:21;;;;;;;7.10;6.43;;;;;;;16.02;81.32;96300.19;5076079;28;20545;-79
2022/07/10 00:48:50;;;;;;;7.80;7.03;;;;;;;16.05;81.36;96295.44;5075811;28;20165;-79
2022/07/10 00:51:17;;;;;;;7.03;6.38;;;;;;;16.06;81.60;96294.47;5058996;28;20227;-78
2022/07/10 00:53:44;;;;;;;6.72;6.13;;;;;;;16.05;81.20;96297.25;5062040;28;20195;-81
2022/07/10 00:56:10;;;;;;;7.47;6.78;;;;;;;16.03;81.60;96300.03;5083565;28;20167;-79
2022/07/10 00:58:36;;;;;;;7.43;6.72;;;;;;;16.01;82.02;96295.94;5100601;28;20199;-79
2022/07/10 01:01:02;;;;;;;7.68;7.00;;;;;;;16.00;81.65;96294.31;5100387;28;20185;-80
2022/07/10 01:03:27;;;;;;;7.38;6.82;;;;;;;15.99;82.01;96284.78;5099959;28;20180;-79
2022/07/10 01:05:52;;;;;;;7.85;7.15;;;;;;;15.94;81.98;96285.28;5091642;28;20179;-79
2022/07/10 01:08:18;;;;;;;9.45;7.25;;;;;;;15.91;81.87;96288.25;5074586;28;20276;-79
2022/07/10 01:10:44;;;;;;;7.97;7.18;;;;;;;15.88;81.99;96288.56;5082324;28;20208;-79
2022/07/10 01:13:09;;;;;;;7.85;7.15;;;;;;;15.88;82.24;96290.34;5093400;28;20202;-79
2022/07/10 01:15:36;;;;;;;7.68;7.07;;;;;;;15.83;82.25;96283.00;5089820;28;20644;-79
2022/07/10 01:18:01;;;;;;;8.30;7.47;;;;;;;15.81;82.82;96279.69;5086717;28;20172;-79
2022/07/10 01:20:32;;;;;;;8.48;7.15;;;;;;;15.84;82.87;96284.63;5087970;28;20340;-79
2022/07/10 01:22:57;;;;;;;7.95;6.55;;;;;;;15.83;82.80;96286.44;5074811;28;20165;-79
2022/07/10 01:25:22;;;;;;;10.52;7.50;;;;;;;15.83;82.98;96283.00;5094940;28;20183;-79
2022/07/10 01:27:47;;;;;;;7.63;6.93;;;;;;;15.88;82.62;96283.31;5061147;28;20172;-79
2022/07/10 01:30:13;;;;;;;8.20;7.50;;;;;;;15.89;82.71;96273.66;5060365;28;20248;-79
2022/07/10 01:32:39;;;;;;;7.82;7.03;;;;;;;15.89;82.62;96278.88;5076880;28;20180;-79
2022/07/10 01:35:05;;;;;;;8.38;7.63;;;;;;;15.92;82.85;96281.22;5092883;28;20203;-79
2022/07/10 01:37:30;;;;;;;9.90;8.90;;;;;;;15.89;83.34;96276.28;5059967;28;20237;-79
2022/07/10 01:39:56;;;;;;;11.32;10.10;;;;;;;15.95;83.50;96275.63;5075398;28;20192;-79
2022/07/10 01:42:21;;;;;;;11.80;10.60;;;;;;;15.82;84.74;96276.13;5091903;28;20208;-79
2022/07/10 01:44:46;;;;;;;10.27;9.27;;;;;;;15.98;83.60;96278.72;5092638;28;20171;-79
2022/07/10 01:47:12;;;;;;;10.70;9.75;;;;;;;16.05;83.88;96286.75;5093750;28;20591;-79
2022/07/10 01:49:37;;;;;;;12.73;9.75;;;;;;;16.03;83.99;96279.06;5094006;28;20251;-79
2022/07/10 01:52:03;;;;;;;9.93;9.02;;;;;;;16.05;83.88;96282.34;5076092;28;20200;-80
2022/07/10 01:54:28;;;;;;;11.18;9.98;;;;;;;15.96;84.77;96283.31;5075337;28;20271;-79
2022/07/10 01:56:53;;;;;;;10.85;9.95;;;;;;;15.97;84.25;96290.19;5075985;28;20233;-79
2022/07/10 01:59:19;;;;;;;10.95;9.57;;;;;;;15.90;84.94;96286.59;5091940;28;20192;-79
2022/07/10 02:01:44;;;;;;;11.38;10.35;;;;;;;15.84;85.47;96284.63;5096388;28;20185;-79
2022/07/10 02:06:53;;;;;;;11.30;10.20;;;;;;;15.77;85.94;96289.69;5103776;28;20184;-79
2022/07/10 02:09:19;;;;;;;11.13;10.07;;;;;;;15.83;85.40;96283.00;5094353;28;20176;-79
2022/07/10 02:11:44;;;;;;;13.00;10.85;;;;;;;15.74;86.19;96289.22;5074633;28;20200;-79
2022/07/10 02:14:09;;;;;;;13.38;11.00;;;;;;;15.74;86.02;96291.81;5091984;28;20640;-79
2022/07/10 02:16:35;;;;;;;11.90;10.88;;;;;;;15.79;85.52;96286.91;5074944;28;20176;-79
2022/07/10 02:19:01;;;;;;;12.13;10.45;;;;;;;15.73;86.14;96295.44;5075399;28;20192;-79
2022/07/10 02:21:26;;;;;;;12.20;11.00;;;;;;;15.68;86.36;96293.28;5074801;28;20207;-79
2022/07/10 02:23:52;;;;;;;12.15;10.85;;;;;;;15.66;86.61;96294.44;5074694;28;20186;-79
2022/07/10 02:26:17;;;;;;;13.38;11.10;;;;;;;15.56;86.62;96300.59;5074792;28;20180;-79
2022/07/10 02:28:42;;;;;;;13.93;12.43;;;;;;;15.44;87.82;96294.00;5074671;28;20525;-79
2022/07/10 02:31:08;;;;;;;11.98;10.88;;;;;;;15.48;87.65;96289.28;5074828;28;20270;-80
2022/07/10 02:33:33;;;;;;;12.63;10.40;;;;;;;15.49;87.26;96301.38;5093066;28;20177;-79
2022/07/10 02:35:58;;;;;;;13.10;11.68;;;;;;;15.30;88.50;96302.47;5091042;28;20187;-79
2022/07/10 02:38:24;;;;;;;12.60;11.18;;;;;;;15.37;87.92;96300.88;5057579;28;20205;-79
2022/07/10 02:40:49;;;;;;;11.82;10.63;;;;;;;15.40;87.94;96292.69;5091916;28;20290;-78
2022/07/10 02:43:14;;;;;;;13.07;11.82;;;;;;;15.36;88.50;96287.91;5091526;28;20173;-79
2022/07/10 02:45:40;;;;;;;13.45;12.07;;;;;;;15.27;88.98;96292.31;5074050;28;20560;-79
2022/07/10 02:48:05;;;;;;;16.08;13.32;;;;;;;15.25;89.01;96294.28;5074306;28;20642;-79
2022/07/10 02:50:30;;;;;;;14.25;12.95;;;;;;;15.14;89.78;96302.41;5074316;28;20224;-79
2022/07/10 02:52:55;;;;;;;13.02;11.73;;;;;;;15.27;88.83;96293.13;5074121;28;20188;-79
2022/07/10 02:55:21;;;;;;;15.00;13.48;;;;;;;15.20;88.99;96293.94;5074049;28;20173;-79
2022/07/10 02:57:46;;;;;;;17.30;13.73;;;;;;;15.16;89.36;96301.25;5091813;28;20663;-79
2022/07/10 03:00:12;;;;;;;14.50;12.88;;;;;;;15.08;89.88;96301.22;5077602;28;20563;-79
2022/07/10 03:02:37;;;;;;;15.57;13.00;;;;;;;15.07;89.97;96293.53;5077711;28;20187;-79
2022/07/10 03:05:03;;;;;;;14.43;12.85;;;;;;;15.09;89.77;96294.19;5094073;28;20173;-79
2022/07/10 03:07:28;;;;;;;13.52;12.32;;;;;;;14.99;90.15;96299.56;5077434;28;20184;-79
2022/07/10 03:09:53;;;;;;;12.60;11.38;;;;;;;15.03;89.94;96306.13;5093591;28;20185;-79
2022/07/10 03:12:18;;;;;;;12.85;11.68;;;;;;;14.98;89.56;96306.59;5077204;28;20282;-79
2022/07/10 03:14:44;;;;;;;13.75;12.35;;;;;;;14.84;90.87;96308.94;5095297;28;20311;-79
2022/07/10 03:17:09;;;;;;;14.07;12.30;;;;;;;14.94;90.07;96307.06;5076865;28;20173;-79
2022/07/10 03:19:34;;;;;;;12.27;10.93;;;;;;;14.82;90.71;96309.09;5094274;28;20278;-79
2022/07/10 03:22:00;;;;;;;11.23;10.18;;;;;;;14.93;89.96;96308.00;5077540;28;20203;-79
2022/07/10 03:24:28;;;;;;;11.02;10.02;;;;;;;14.87;90.08;96303.44;5076768;28;20172;-79
2022/07/10 03:26:53;;;;;;;12.07;10.95;;;;;;;14.68;91.17;96296.63;5077483;28;20177;-79
2022/07/10 03:29:21;;;;;;;12.45;10.38;;;;;;;14.76;90.35;96299.28;5095088;28;20223;-79
2022/07/10 03:31:47;;;;;;;12.52;9.77;;;;;;;14.72;90.13;96304.00;5095208;28;20193;-80
2022/07/10 03:34:12;;;;;;;11.15;10.05;;;;;;;14.70;90.91;96318.19;5076503;28;20172;-79
2022/07/10 03:36:37;;;;;;;11.57;10.38;;;;;;;14.60;90.76;96310.47;5093468;28;20184;-79
2022/07/10 03:39:03;;;;;;;13.35;10.10;;;;;;;14.69;90.05;96311.34;5093452;28;20641;-79
2022/07/10 03:41:28;;;;;;;11.02;9.88;;;;;;;14.70;90.13;96307.75;5076671;28;20750;-79
2022/07/10 03:43:53;;;;;;;10.18;9.13;;;;;;;14.67;89.90;96318.53;5059647;28;20559;-79
2022/07/10 03:46:19;;;;;;;8.73;7.82;;;;;;;14.66;88.81;96307.22;5059889;28;20547;-78
2022/07/10 03:48:44;;;;;;;9.43;8.43;;;;;;;14.60;88.69;96313.06;5076758;28;20200;-79
2022/07/10 03:51:09;;;;;;;9.48;7.03;;;;;;;14.63;87.95;96304.91;5076421;28;20200;-79
2022/07/10 03:53:36;;;;;;;8.55;7.28;;;;;;;14.54;87.66;96310.25;5059028;28;20319;-79
2022/07/10 03:56:01;;;;;;;7.72;6.75;;;;;;;14.62;87.25;96305.91;5094211;28;20168;-79
2022/07/10 03:58:26;;;;;;;10.23;6.13;;;;;;;14.57;87.38;96304.72;5059505;28;20219;-79
2022/07/10 04:00:52;;;;;;;7.38;6.68;;;;;;;14.48;87.77;96311.66;5075836;28;20212;-79
2022/07/10 04:03:17;;;;;;;8.35;6.60;;;;;;;14.45;87.81;96314.59;5094032;28;20204;-79
2022/07/10 04:05:43;;;;;;;7.35;5.70;;;;;;;14.21;88.44;96320.44;5092384;28;20729;-79
2022/07/10 04:08:08;;;;;;;9.02;5.90;;;;;;;14.29;87.18;96317.06;5058935;28;20173;-79
2022/07/10 04:10:34;;;;;;;5.87;5.37;;;;;;;14.19;88.22;96309.31;5075351;28;20398;-79
2022/07/10 04:12:59;;;;;;;6.43;5.27;;;;;;;14.34;86.20;96315.63;5075823;28;20184;-78
2022/07/10 04:15:25;;;;;;;6.57;4.53;;;;;;;14.22;86.11;96314.22;5092142;28;20203;-78
2022/07/10 04:17:51;;;;;;;10.23;5.20;;;;;;;14.36;86.05;96316.31;5075868;28;20528;-79
2022/07/10 04:20:17;;;;;;;6.82;4.43;;;;;;;14.22;86.25;96316.84;5075444;28;20445;-80
2022/07/10 04:22:43;;;;;;;8.35;4.35;;;;;;;14.28;85.96;96311.00;5092662;28;20184;-81
2022/07/10 04:25:08;;;;;;;7.20;4.50;;;;;;;14.13;85.49;96320.34;5093553;28;20509;-79
2022/07/10 04:27:34;;;;;;;4.97;3.92;;;;;;;14.25;85.01;96316.56;5092215;28;20180;-78
2022/07/10 04:29:59;;;;;;;7.57;3.80;;;;;;;14.39;83.97;96315.16;5075973;28;20175;-80
2022/07/10 04:32:25;;;;;;;7.87;4.33;;;;;;;14.47;83.94;96315.25;5094154;28;20199;-79
2022/07/10 04:34:50;;;;;;;6.07;4.00;;;;;;;14.26;84.42;96314.75;5075196;28;20183;-79
2022/07/10 04:37:16;;;;;;;7.13;3.90;;;;;;;14.34;83.77;96326.09;5092521;28;20188;-80
2022/07/10 04:39:41;;;;;;;7.97;3.60;;;;;;;14.37;82.38;96323.16;5058983;28;20196;-79
2022/07/10 04:42:07;;;;;;;6.43;3.47;;;;;;;14.22;82.70;96322.06;5058742;28;20334;-80
2022/07/10 04:44:33;;;;;;;4.85;3.70;;;;;;;14.14;83.86;96329.84;5075055;28;20218;-80
2022/07/10 04:46:58;;;;;;;5.18;3.58;;;;;;;14.04;84.52;96323.88;5075279;28;20181;-79
2022/07/10 04:49:24;;;;;;;5.50;3.53;;;;;;;14.03;84.46;96322.22;5058394;28;20183;-79
2022/07/10 04:51:49;;;;;;;6.00;3.42;;;;;;;14.07;84.25;96320.97;5058793;28;20207;-80
2022/07/10 04:54:14;;;;;;;5.65;3.97;;;;;;;14.17;83.34;96319.09;5074987;28;20324;-80
2022/07/10 04:56:40;;;;;;;5.68;3.90;;;;;;;14.04;83.80;96322.06;5076123;28;20238;-79
2022/07/10 04:59:05;;;;;;;4.55;3.63;;;;;;;14.16;83.70;96325.28;5075502;28;20204;-80
2022/07/10 05:01:31;;;;;;;7.35;3.33;;;;;;;14.03;83.72;96319.63;5092242;28;20196;-80
2022/07/10 05:03:56;;;;;;;6.53;3.37;;;;;;;14.19;83.29;96317.16;5058399;28;20187;-80
2022/07/10 05:06:21;;;;;;;5.53;3.23;;;;;;;14.20;82.01;96324.00;5092640;28;20177;-80
2022/07/10 05:08:47;;;;;;;5.03;3.07;;;;;;;14.13;82.95;96328.19;5075635;28;20169;-80
2022/07/10 05:11:12;;;;;;;9.30;3.67;;;;;;;14.11;82.61;96324.91;5091739;28;20318;-79
2022/07/10 05:13:37;;;;;;;5.60;3.50;;;;;;;14.33;81.62;96328.88;5075412;28;20230;-79
2022/07/10 05:16:04;;;;;;;7.20;3.40;;;;;;;14.41;80.82;96327.13;5091469;28;20635;-79
2022/07/10 05:18:29;;;;;;;4.67;3.07;;;;;;;14.47;80.82;96330.13;5092000;28;20199;-79
2022/07/10 05:20:55;;;;;;;6.23;3.10;;;;;;;14.56;79.94;96335.25;5091046;28;20544;-80
2022/07/10 05:23:20;;;;;;;3.40;3.10;;;;;;;14.56;80.40;96332.63;5074536;28;20227;-79
2022/07/10 05:25:46;;;;;;;4.95;2.95;;;;;;;14.55;79.64;96338.84;5074445;28;20172;-79
2022/07/10 05:28:14;;;;;;;7.60;3.10;;;;;;;14.53;79.70;96342.59;5075061;28;20191;-79
2022/07/10 05:30:39;;;;;;;4.82;3.38;;;;;;;14.17;81.22;96334.78;5091505;28;20223;-79
2022/07/10 05:33:04;;;;;;;3.47;3.15;;;;;;;14.50;80.81;96335.06;5074583;28;20648;-81
2022/07/10 05:35:30;;;;;;;4.90;3.20;;;;;;;14.65;79.49;96328.28;5074444;28;20183;-79
2022/07/10 05:37:55;;;;;;;9.90;3.00;;;;;;;14.78;77.62;96338.34;5074558;28;20188;-80
2022/07/10 05:40:20;;;;;;;3.33;2.88;;;;;;;14.44;78.41;96346.91;5091605;28;20254;-79
2022/07/10 05:42:47;;;;;;;4.00;2.88;;;;;;;14.67;78.50;96344.66;5074934;28;20676;-79
2022/07/10 05:45:12;;;;;;;5.40;2.97;;;;;;;14.62;78.43;96352.13;5057663;28;20177;-79
2022/07/10 05:47:37;;;;;;;6.70;3.10;;;;;;;14.68;76.44;96354.13;5074403;28;20184;-79
2022/07/10 05:50:04;;;;;;;4.05;2.90;;;;;;;14.51;77.14;96357.63;5091610;28;20745;-79
2022/07/10 05:52:29;;;;;;;5.43;2.80;;;;;;;14.63;76.30;96351.16;5091427;28;20227;-81
2022/07/10 05:54:58;;;;;;;3.78;2.83;;;;;;;14.88;74.53;96339.06;5074450;28;20275;-81
2022/07/10 05:57:23;;;;;;;4.72;2.70;;;;;;;14.89;75.23;96344.13;5075746;28;20180;-80
2022/07/10 05:59:52;;;;;;;5.77;2.63;;;;;;;14.83;73.46;96349.97;5074717;28;20266;-80
2022/07/10 06:02:20;;;;;;;5.03;2.50;;;;;;;15.15;72.02;96351.94;5092508;28;20212;-80
2022/07/10 06:04:46;;;;;;;4.03;2.23;;;;;;;14.98;70.59;96348.44;5074033;28;20495;-80
2022/07/10 06:07:11;;;;;;;3.75;2.40;;;;;;;15.09;69.49;96349.13;5091261;28;20180;-80
2022/07/10 06:09:36;;;;;;;9.57;3.13;;;;;;;15.34;69.38;96347.44;5074265;28;20632;-81
2022/07/10 06:12:02;;;;;;;3.63;2.30;;;;;;;15.06;70.24;96349.47;5090902;28;20200;-80
2022/07/10 06:14:27;;;;;;;3.15;2.30;;;;;;;15.20;69.94;96351.50;5074128;28;20184;-80
2022/07/10 06:16:52;;;;;;;5.35;2.05;;;;;;;15.09;68.89;96352.56;5074791;28;20238;-80
2022/07/10 06:19:18;;;;;;;5.57;2.50;;;;;;;15.13;68.74;96347.88;5074573;28;20207;-80
2022/07/10 06:21:43;;;;;;;7.43;2.13;;;;;;;14.97;69.19;96352.03;5091410;28;20303;-80
2022/07/10 06:24:09;;;;;;;4.38;2.10;;;;;;;14.83;69.77;96362.22;5092288;28;20181;-80
2022/07/10 06:26:34;;;;;;;3.30;1.98;;;;;;;14.44;70.97;96362.59;5074837;28;20184;-80
2022/07/10 06:29:00;;;;;;;4.70;1.80;;;;;;;14.30;70.53;96360.50;5092048;28;20180;-80
2022/07/10 06:31:25;;;;;;;5.00;1.60;;;;;;;14.03;71.72;96370.06;5092135;28;20575;-79
2022/07/10 06:33:50;;;;;;;5.27;1.90;;;;;;;14.05;71.45;96364.72;5078044;28;20620;-80
2022/07/10 06:36:16;;;;;;;3.80;2.00;;;;;;;14.50;68.40;96372.47;5095625;28;20527;-80
2022/07/10 06:38:41;;;;;;;4.40;1.80;;;;;;;14.39;68.88;96370.03;5095770;28;20197;-80
2022/07/10 06:41:06;;;;;;;3.73;1.83;;;;;;;13.82;70.89;96375.56;5078065;28;20212;-80
2022/07/10 06:43:31;;;;;;;6.57;2.00;;;;;;;14.00;69.79;96385.22;5097275;28;20181;-80
2022/07/10 06:45:57;;;;;;;4.57;1.83;;;;;;;13.81;71.54;96384.38;5094891;28;20543;-80
2022/07/10 06:48:22;;;;;;;2.27;1.77;;;;;;;13.79;71.73;96373.25;5095124;28;20176;-80
2022/07/10 06:50:47;;;;;;;2.83;1.70;;;;;;;13.84;71.67;96380.63;5094706;28;20231;-80
2022/07/10 06:53:13;;;;;;;6.07;1.80;;;;;;;13.75;72.00;96379.72;5077961;28;20270;-79
2022/07/10 06:55:39;;;;;;;4.53;2.27;;;;;;;13.99;71.49;96380.97;5093776;28;20200;-80
2022/07/10 06:58:04;;;;;;;4.73;1.93;;;;;;;14.26;69.86;96387.91;5078042;28;20196;-80
2022/07/10 07:00:29;;;;;;;3.37;1.97;;;;;;;14.48;68.87;96389.25;5077639;28;20593;-81
2022/07/10 07:02:55;;;;;;;4.63;3.10;;;;;;;13.78;72.11;96383.81;5095342;28;20185;-80
2022/07/10 07:05:20;;;;;;;6.00;2.63;;;;;;;14.22;70.84;96382.13;5094565;28;20596;-80
2022/07/10 07:07:45;;;;;;;4.73;2.23;;;;;;;14.19;72.21;96395.50;5060601;28;20648;-80
2022/07/10 07:10:11;;;;;;;5.17;2.60;;;;;;;14.09;72.80;96392.97;5094104;28;20208;-80
2022/07/10 07:12:37;;;;;;;3.43;2.33;;;;;;;13.70;74.06;96397.63;5077806;28;20219;-80
2022/07/10 07:15:02;;;;;;;5.47;2.60;;;;;;;13.85;73.66;96393.53;5094319;28;20234;-79
2022/07/10 07:17:33;;;;;;;7.90;2.50;;;;;;;13.81;74.93;96399.22;5094174;28;20192;-80
2022/07/10 07:25:27;;;;;;;4.43;2.40;;;;;;;14.03;76.39;96400.56;5094086;28;20171;-80
2022/07/10 07:27:53;;;;;;;6.17;2.87;;;;;;;14.21;74.83;96397.97;5077719;28;20181;-80
2022/07/10 07:30:18;;;;;;;4.77;2.57;;;;;;;14.43;73.90;96395.72;5094804;28;20509;-80
2022/07/10 07:32:45;;;;;;;4.70;2.50;;;;;;;14.44;73.66;96397.38;5078825;28;20194;-80
2022/07/10 07:35:11;;;;;;;3.13;2.50;;;;;;;13.54;77.52;96400.88;5078216;28;20183;-80
2022/07/10 07:37:40;;;;;;;4.10;2.83;;;;;;;14.02;75.64;96399.75;5061274;28;20197;-80
2022/07/10 07:40:07;;;;;;;6.23;2.90;;;;;;;14.24;74.45;96397.69;5095693;28;20268;-80
2022/07/10 07:42:32;;;;;;;2.80;2.30;;;;;;;14.66;73.38;96397.88;5094044;28;20196;-80
2022/07/10 07:44:58;;;;;;;6.88;2.70;;;;;;;14.78;71.20;96398.47;5093171;28;20177;-80
2022/07/10 07:47:23;;;;;;;3.20;2.63;;;;;;;14.97;70.82;96399.09;5094386;28;20176;-80
2022/07/10 07:49:48;;;;;;;4.40;2.50;;;;;;;15.45;68.06;96389.84;5077203;28;20640;-80
2022/07/10 07:52:14;;;;;;;5.28;2.47;;;;;;;15.88;66.69;96390.69;5077040;28;20208;-80
2022/07/10 07:54:39;;;;;;;4.28;2.50;;;;;;;16.15;64.36;96392.22;5076317;28;20683;-80
2022/07/10 07:57:05;;;;;;;4.82;2.08;;;;;;;16.72;63.29;96388.88;5093643;28;20259;-80
2022/07/10 07:59:30;;;;;;;4.25;2.10;;;;;;;16.76;61.29;96392.78;5093317;28;20205;-81
2022/07/10 08:01:55;;;;;;;4.80;2.50;;;;;;;17.06;60.80;96396.53;5076784;28;20208;-80
2022/07/10 08:04:21;;;;;;;6.50;2.35;;;;;;;16.75;60.42;96393.78;5076431;28;20173;-80
2022/07/10 08:06:46;;;;;;;7.07;2.45;;;;;;;16.87;60.08;96393.28;5060078;28;20173;-80
2022/07/10 08:09:11;;;;;;;3.63;2.20;;;;;;;16.85;58.94;96394.41;5076983;28;20167;-80
2022/07/10 08:11:36;;;;;;;4.55;2.40;;;;;;;17.03;59.10;96397.66;5093891;28;20629;-80
2022/07/10 08:14:02;;;;;;;5.22;2.38;;;;;;;16.97;58.54;96391.28;5093939;28;20664;-80
2022/07/10 08:16:27;;;;;;;6.65;1.80;;;;;;;17.03;58.61;96392.41;5093367;28;20203;-80
2022/07/10 08:18:52;;;;;;;7.53;2.75;;;;;;;16.66;60.00;96388.50;5093537;28;20250;-80
2022/07/10 08:21:18;;;;;;;4.05;2.25;;;;;;;16.92;57.94;96388.34;5059575;28;20192;-80
2022/07/10 08:23:43;;;;;;;5.78;2.10;;;;;;;17.17;57.74;96390.91;5092628;28;20535;-80
2022/07/10 08:26:08;;;;;;;6.03;2.50;;;;;;;17.31;58.18;96389.38;5093151;28;20177;-80
2022/07/10 08:28:33;;;;;;;5.97;2.17;;;;;;;17.88;56.31;96382.13;5076138;28;20675;-80
2022/07/10 08:30:59;;;;;;;3.40;2.15;;;;;;;17.74;56.17;96377.59;5075903;28;20660;-80
2022/07/10 08:33:24;;;;;;;4.90;2.63;;;;;;;18.47;55.11;96371.09;5093419;28;20184;-81
2022/07/10 08:35:49;;;;;;;3.97;2.08;;;;;;;18.26;54.82;96372.53;5092967;28;20172;-81
2022/07/10 08:38:15;;;;;;;5.45;2.40;;;;;;;17.93;55.60;96381.59;5076178;28;20199;-81
2022/07/10 08:40:41;;;;;;;4.05;2.17;;;;;;;19.07;52.04;96373.66;5075747;28;20196;-81
2022/07/10 08:43:06;;;;;;;3.75;2.10;;;;;;;19.16;50.07;96367.31;5092927;28;20177;-81
2022/07/10 08:45:35;;;;;;;4.25;2.08;;;;;;;19.49;49.14;96362.50;5092673;28;20176;-80
2022/07/10 08:48:05;;;;;;;3.65;1.98;;;;;;;18.66;50.57;96368.00;5093402;28;20177;-81
2022/07/10 08:50:33;;;;;;;2.85;2.10;;;;;;;19.11;51.05;96363.59;5076549;28;20189;-81
2022/07/10 08:53:04;;;;;;;7.82;2.05;;;;;;;19.05;51.27;96366.94;5076322;28;20204;-81
2022/07/10 08:55:30;;;;;;;6.07;2.40;;;;;;;18.98;50.93;96368.66;5092516;28;20175;-81
2022/07/10 08:57:55;;;;;;;5.88;2.30;;;;;;;18.37;52.77;96372.09;5092076;28;20180;-81
2022/07/10 09:00:22;;;;;;;7.50;2.30;;;;;;;18.80;51.97;96377.72;5093840;28;20239;-81
2022/07/10 09:02:47;;;;;;;4.20;1.90;;;;;;;18.91;52.23;96364.13;5058792;28;20560;-81
2022/07/10 09:05:15;;;;;;;5.45;2.40;;;;;;;19.32;51.26;96363.69;5091764;28;20299;-81
2022/07/10 09:07:44;;;;;;;4.63;2.40;;;;;;;19.06;51.07;96387.81;5075109;28;20196;-82
2022/07/10 09:10:10;;;;;;;7.13;2.28;;;;;;;18.90;51.12;96377.44;5092456;28;20546;-82
2022/07/10 09:12:56;;;;;;;7.15;2.50;;;;;;;19.03;50.14;96374.22;5076018;28;20598;-81
2022/07/10 09:15:24;;;;;;;5.10;2.78;;;;;;;19.04;50.51;96374.03;5075393;28;20538;-81
2022/07/10 09:17:50;;;;;;;4.47;2.20;;;;;;;19.77;48.95;96375.84;5076080;28;20550;-80
2022/07/10 09:20:51;;;;;;;5.45;1.90;;;;;;;19.75;48.48;96369.13;5075673;28;20200;-80
2022/07/10 09:23:21;;;;;;;3.80;1.67;;;;;;;19.21;50.54;96358.88;5050804;28;20189;-81
2022/07/10 09:25:47;;;;;;;5.10;2.08;;;;;;;18.94;50.62;96374.31;5050616;28;20194;-80
2022/07/10 09:28:14;;;;;;;6.30;2.15;;;;;;;19.06;50.38;96376.47;5017298;28;20222;-81
2022/07/10 09:30:39;;;;;;;5.80;2.80;;;;;;;19.01;50.55;96381.50;5033900;28;20301;-80
2022/07/10 09:33:27;;;;;;;4.35;1.83;;;;;;;18.82;51.33;96386.25;5050562;28;20227;-80
2022/07/10 09:36:08;;;;;;;5.72;2.28;;;;;;;19.06;50.17;96387.81;5034005;28;20299;-80
2022/07/10 09:38:40;;;;;;;4.70;2.30;;;;;;;18.75;50.42;96387.97;5017411;28;20492;-80
2022/07/10 09:41:11;;;;;;;5.20;2.58;;;;;;;18.19;51.66;96395.25;5050249;28;20212;-80
2022/07/10 09:43:46;;;;;;;4.45;2.35;;;;;;;18.54;52.95;96387.78;5033705;28;20201;-80
2022/07/10 09:46:12;;;;;;;5.28;2.30;;;;;;;18.72;50.58;96390.94;5067087;28;20280;-80
2022/07/10 09:48:37;;;;;;;6.50;2.50;;;;;;;18.72;50.43;96392.75;5033466;28;20209;-80
2022/07/10 09:51:11;;;;;;;5.90;2.25;;;;;;;18.79;50.27;96398.94;5050002;28;20202;-80
2022/07/10 09:53:42;;;;;;;4.55;2.25;;;;;;;18.69;49.03;96396.56;5033955;28;20200;-80
2022/07/10 09:56:09;;;;;;;4.47;2.00;;;;;;;18.95;49.43;96394.34;5051237;28;20193;-80
2022/07/10 09:58:38;;;;;;;5.70;2.00;;;;;;;18.73;49.90;96397.84;5058335;28;20208;-80
2022/07/10 10:01:08;;;;;;;6.85;2.20;;;;;;;18.72;49.85;96393.56;5075207;28;20283;-80
2022/07/10 10:03:35;;;;;;;5.10;2.00;;;;;;;18.94;49.79;96387.47;5058360;28;20263;-80
2022/07/10 10:06:16;;;;;;;3.50;2.08;;;;;;;18.91;49.24;96394.91;5074495;28;20747;-81
2022/07/10 10:08:52;;;;;;;5.18;2.22;;;;;;;19.18;48.12;96389.03;5096102;28;20187;-81
2022/07/10 10:11:22;;;;;;;3.72;2.10;;;;;;;19.16;48.04;96382.28;5094499;28;20306;-81
2022/07/10 10:13:49;;;;;;;6.43;2.00;;;;;;;19.63;48.05;96383.78;5095381;28;20177;-80
2022/07/10 10:16:15;;;;;;;6.03;2.20;;;;;;;19.71;44.88;96379.25;5062265;28;20184;-80
2022/07/10 10:21:27;;;;;;;4.05;1.83;;;;;;;19.17;47.30;96376.03;5097438;28;20249;-80
2022/07/10 10:23:54;;;;;;;2.63;1.90;;;;;;;19.12;47.88;96376.59;5077928;28;20222;-80
2022/07/10 10:26:21;;;;;;;5.15;1.70;;;;;;;18.42;47.90;96379.47;5061668;28;20181;-80
2022/07/10 10:28:46;;;;;;;5.00;1.70;;;;;;;17.87;47.79;96375.25;5078275;28;20173;-80
2022/07/10 10:31:11;;;;;;;3.95;1.80;;;;;;;18.28;46.53;96367.91;5078138;28;20199;-80
2022/07/10 10:33:43;;;;;;;2.50;1.40;;;;;;;18.42;45.79;96363.72;5095549;28;20176;-81
2022/07/10 10:36:11;;;;;;;2.53;1.52;;;;;;;19.04;45.95;96360.88;5078277;28;20181;-81
2022/07/10 10:38:54;;;;;;;2.42;1.20;;;;;;;19.91;44.11;96354.94;5079211;28;20235;-82
2022/07/10 10:41:44;;;;;;;4.22;1.50;;;;;;;20.38;41.70;96363.13;5078685;28;20679;-81
2022/07/10 10:44:13;;;;;;;4.00;1.27;;;;;;;19.72;42.41;96366.88;5061287;28;20682;-81
2022/07/10 10:46:50;;;;;;;5.20;1.63;;;;;;;19.37;43.60;96361.34;5097301;28;20168;-80
2022/07/10 10:49:16;;;;;;;3.95;1.30;;;;;;;19.53;42.40;96361.16;5080378;28;20173;-79
2022/07/10 10:52:07;;;;;;;2.70;1.50;;;;;;;20.05;42.34;96362.81;5079231;28;20266;-80
2022/07/10 10:54:57;;;;;;;4.38;1.30;;;;;;;20.46;42.30;96362.19;5078386;28;20184;-80
2022/07/10 10:57:39;;;;;;;2.97;1.30;;;;;;;20.38;39.78;96357.84;5078492;28;20168;-80
2022/07/10 11:00:07;;;;;;;3.17;1.38;;;;;;;20.58;41.02;96368.63;5061818;28;20265;-80
2022/07/10 11:02:40;;;;;;;2.58;1.10;;;;;;;20.71;38.85;96364.44;5078762;28;20196;-80
2022/07/10 11:05:17;;;;;;;3.95;1.40;;;;;;;19.72;42.25;96353.72;5078351;28;20175;-80
2022/07/10 11:07:58;;;;;;;2.45;1.20;;;;;;;19.61;41.29;96357.59;5097169;28;20168;-80
2022/07/10 11:10:30;;;;;;;3.33;1.27;;;;;;;20.01;41.55;96356.25;5076477;28;20180;-80
2022/07/10 11:13:08;;;;;;;2.78;1.20;;;;;;;19.52;41.69;96364.78;5096143;28;20203;-81
2022/07/10 11:15:42;;;;;;;4.65;1.15;;;;;;;20.02;40.43;96354.44;5078172;28;20517;-81
2022/07/10 11:18:10;;;;;;;3.45;1.20;;;;;;;20.27;39.48;96354.91;5077322;28;20199;-81
2022/07/10 11:20:37;;;;;;;3.65;1.17;;;;;;;20.53;39.27;96355.16;5095563;28;20200;-80
2022/07/10 11:23:21;;;;;;;5.15;1.30;;;;;;;20.36;40.38;96359.84;5078195;28;20632;-80
2022/07/10 11:26:01;;;;;;;6.15;1.20;;;;;;;20.57;39.56;96358.22;5077677;28;20568;-80
2022/07/10 11:28:36;;;;;;;3.47;0.90;;;;;;;20.87;37.74;96353.63;5095845;28;20251;-80
2022/07/10 11:31:01;;;;;;;3.05;1.10;;;;;;;21.02;37.59;96356.94;5061405;28;20203;-79
2022/07/10 11:33:27;;;;;;;6.57;1.15;;;;;;;20.99;37.38;96357.34;5077720;28;20185;-81
2022/07/10 11:35:53;;;;;;;5.45;1.10;;;;;;;19.17;39.94;96352.34;5077462;28;20191;-81
2022/07/10 11:38:23;;;;;;;4.78;1.20;;;;;;;19.04;40.69;96355.59;5094314;28;20644;-81
2022/07/10 11:40:48;;;;;;;3.38;1.00;;;;;;;19.49;39.25;96351.16;5077557;28;20192;-81